Time;durP1;ratioP1;P1;durP2;ratioP2;P2;SDS_P1;SDS_P2;PMS_P1;PMS_P2;Temp;Humidity;BMP_temperature;BMP_pressure;BME280_temperature;BME280_humidity;BME280_pressure;Samples;Min_cycle;Max_cycle;Signal;HPM_P1;HPM_P2
2021/12/27 00:00:30;;;;;;;40.10;24.75;;;281.70;2278.40;;;;;;6251536;22;20126;-80
2021/12/27 00:02:59;;;;;;;42.42;25.67;;;281.70;2278.40;;;;;;6250816;22;20007;-80
2021/12/27 00:05:25;;;;;;;36.10;21.88;;;281.70;2278.40;;;;;;6278680;22;19996;-82
2021/12/27 00:07:53;;;;;;;32.55;19.88;;;281.70;2278.40;;;;;;6251326;22;20002;-82
2021/12/27 00:10:20;;;;;;;29.50;19.85;;;281.70;2278.40;;;;;;6250928;22;20083;-82
2021/12/27 00:12:46;;;;;;;34.90;20.38;;;281.70;2278.40;;;;;;6251432;22;19995;-83
2021/12/27 00:15:13;;;;;;;33.67;20.10;;;281.60;2278.40;;;;;;6251051;22;20000;-81
2021/12/27 00:17:40;;;;;;;28.70;17.55;;;281.60;2278.40;;;;;;6251447;22;20043;-82
2021/12/27 00:20:07;;;;;;;26.98;15.57;;;281.60;2278.40;;;;;;6251244;22;20007;-82
2021/12/27 00:22:33;;;;;;;22.55;14.68;;;281.60;2278.40;;;;;;6277780;22;19992;-82
2021/12/27 00:24:59;;;;;;;21.80;14.18;;;281.60;2278.40;;;;;;6251049;22;20022;-81
2021/12/27 00:27:25;;;;;;;20.77;13.98;;;281.60;2278.40;;;;;;6277981;22;20403;-81
2021/12/27 00:29:52;;;;;;;23.88;15.73;;;256.90;2252.80;;;;;;6250583;22;20082;-82
2021/12/27 00:32:19;;;;;;;22.67;15.50;;;281.60;2278.40;;;;;;6251033;22;20010;-81
2021/12/27 00:34:45;;;;;;;20.23;13.32;;;281.60;2278.40;;;;;;6251336;22;20079;-81
2021/12/27 00:37:11;;;;;;;20.60;12.48;;;281.60;2278.40;;;;;;6250800;22;20022;-82
2021/12/27 00:39:37;;;;;;;20.13;14.25;;;281.60;2278.40;;;;;;6251053;22;20413;-82
2021/12/27 00:42:04;;;;;;;23.27;14.50;;;256.90;2252.80;;;;;;6251131;22;20004;-82
2021/12/27 00:44:31;;;;;;;22.70;12.82;;;256.90;2252.80;;;;;;6250680;22;19996;-81
2021/12/27 00:46:57;;;;;;;23.77;13.20;;;256.90;2252.80;;;;;;6251015;22;20000;-82
2021/12/27 00:49:23;;;;;;;26.70;14.68;;;256.90;2252.80;;;;;;6250971;22;20006;-81
2021/12/27 00:51:49;;;;;;;24.20;14.52;;;256.90;2252.80;;;;;;6250762;22;20011;-81
2021/12/27 00:54:15;;;;;;;24.40;14.23;;;256.90;2252.80;;;;;;6250809;22;20050;-83
2021/12/27 00:56:42;;;;;;;29.30;15.75;;;256.90;2252.80;;;;;;6251116;22;19999;-81
2021/12/27 00:59:08;;;;;;;28.63;16.40;;;256.90;2252.80;;;;;;6250705;22;20282;-81
2021/12/27 01:01:34;;;;;;;23.42;14.63;;;256.90;2252.80;;;;;;6250938;22;19995;-81
2021/12/27 01:04:00;;;;;;;21.80;13.85;;;256.90;2252.80;;;;;;6250996;22;19996;-81
2021/12/27 01:06:26;;;;;;;27.13;15.82;;;256.90;2252.80;;;;;;6250554;22;20078;-80
2021/12/27 01:08:53;;;;;;;24.30;14.88;;;256.90;2252.80;;;;;;6250832;22;20011;-81
2021/12/27 01:11:27;;;;;;;41.90;24.15;;;256.90;2252.80;;;;;;6250477;22;20026;-83
2021/12/27 01:14:16;;;;;;;49.22;25.77;;;281.60;2278.40;;;;;;6250935;22;20053;-82
2021/12/27 01:16:44;;;;;;;40.67;23.40;;;281.60;2278.40;;;;;;6250870;22;20026;-82
2021/12/27 01:19:11;;;;;;;40.13;22.38;;;281.60;2278.40;;;;;;6250019;22;20007;-81
2021/12/27 01:21:37;;;;;;;29.77;19.27;;;281.60;2278.40;;;;;;6250912;22;20000;-81
2021/12/27 01:24:04;;;;;;;20.00;10.93;;;281.60;2278.40;;;;;;6250520;22;20011;-80
2021/12/27 01:26:30;;;;;;;19.17;12.60;;;281.60;2278.40;;;;;;6250270;22;19995;-82
2021/12/27 01:28:56;;;;;;;19.02;11.07;;;281.70;2278.40;;;;;;6250681;22;20005;-80
2021/12/27 01:31:24;;;;;;;18.63;11.55;;;281.80;2278.40;;;;;;6250523;22;20103;-82
2021/12/27 01:33:49;;;;;;;15.00;10.20;;;281.90;2278.40;;;;;;6277384;22;20063;-81
2021/12/27 01:36:16;;;;;;;19.77;10.55;;;282.00;2278.40;;;;;;6250720;22;19996;-82
2021/12/27 01:38:43;;;;;;;22.08;13.68;;;282.00;2278.40;;;;;;6251021;22;19999;-81
2021/12/27 01:41:12;;;;;;;25.73;16.27;;;282.00;2278.40;;;;;;6250692;22;20031;-82
2021/12/27 01:43:39;;;;;;;34.55;20.35;;;281.90;2278.40;;;;;;6251063;22;19999;-80
2021/12/27 01:46:11;;;;;;;26.02;17.90;;;281.80;2278.40;;;;;;6250504;22;19992;-80
2021/12/27 01:48:40;;;;;;;22.50;13.63;;;281.80;2278.40;;;;;;6250593;22;20006;-82
2021/12/27 01:51:10;;;;;;;14.93;9.38;;;281.90;2278.40;;;;;;6250793;22;20003;-81
2021/12/27 01:53:37;;;;;;;12.00;6.82;;;281.80;2278.40;;;;;;6250015;22;20000;-81
2021/12/27 01:56:05;;;;;;;11.38;6.22;;;282.00;2278.40;;;;;;6250381;22;19995;-80
2021/12/27 01:58:32;;;;;;;8.63;6.25;;;282.00;2278.40;;;;;;6250545;22;20006;-82
2021/12/27 02:01:00;;;;;;;12.75;6.80;;;282.00;2278.40;;;;;;6250267;22;20006;-81
2021/12/27 02:03:28;;;;;;;8.00;5.55;;;282.20;2278.40;;;;;;6250664;22;20348;-81
2021/12/27 02:05:54;;;;;;;11.63;6.22;;;282.30;2278.40;;;;;;6250277;22;20000;-79
2021/12/27 02:08:20;;;;;;;12.38;7.15;;;282.30;2278.40;;;;;;6250085;22;20026;-80
2021/12/27 02:10:46;;;;;;;8.18;5.65;;;282.30;2278.40;;;;;;6250323;22;20007;-81
2021/12/27 02:13:12;;;;;;;11.43;6.63;;;282.40;2278.40;;;;;;6250343;22;20318;-79
2021/12/27 02:15:38;;;;;;;11.90;6.13;;;282.30;2278.40;;;;;;6250108;22;20022;-80
2021/12/27 02:18:05;;;;;;;14.68;8.80;;;282.30;2278.40;;;;;;6250383;22;20070;-80
2021/12/27 02:20:33;;;;;;;15.02;9.98;;;282.30;2278.40;;;;;;6250458;22;20045;-81
2021/12/27 02:23:03;;;;;;;10.27;6.18;;;282.20;2278.40;;;;;;6250020;22;20500;-81
2021/12/27 02:25:31;;;;;;;8.70;5.95;;;282.40;2278.40;;;;;;6250506;22;19999;-82
2021/12/27 02:27:57;;;;;;;10.75;7.03;;;282.40;2278.40;;;;;;6250323;22;20007;-81
2021/12/27 02:30:24;;;;;;;15.80;7.93;;;307.60;2304.00;;;;;;6250525;22;20000;-81
2021/12/27 02:33:00;;;;;;;10.98;8.50;;;282.20;2278.40;;;;;;6252276;22;19999;-80
2021/12/27 02:35:37;;;;;;;12.55;8.77;;;282.20;2278.40;;;;;;6252159;22;20000;-81
2021/12/27 02:38:04;;;;;;;10.20;7.70;;;282.20;2278.40;;;;;;6252399;22;20075;-82
2021/12/27 02:40:32;;;;;;;14.35;9.13;;;282.20;2278.40;;;;;;6252231;22;20305;-82
2021/12/27 02:43:03;;;;;;;8.70;6.63;;;282.10;2278.40;;;;;;6251924;22;20053;-81
2021/12/27 02:45:32;;;;;;;11.27;6.40;;;282.10;2278.40;;;;;;6252175;22;20035;-80
2021/12/27 02:47:58;;;;;;;10.30;6.57;;;282.10;2278.40;;;;;;6252172;22;20042;-80
2021/12/27 02:50:25;;;;;;;12.00;7.30;;;282.00;2278.40;;;;;;6251934;22;20003;-81
2021/12/27 02:52:51;;;;;;;10.88;8.05;;;282.10;2278.40;;;;;;6252169;22;19996;-82
2021/12/27 02:55:18;;;;;;;16.55;8.98;;;282.00;2278.40;;;;;;6252259;22;20309;-83
2021/12/27 02:57:50;;;;;;;12.23;7.50;;;282.00;2278.40;;;;;;6251993;22;19992;-81
2021/12/27 03:00:20;;;;;;;13.88;7.88;;;282.00;2278.40;;;;;;6278850;22;20002;-80
2021/12/27 03:02:48;;;;;;;13.38;7.95;;;282.00;2278.40;;;;;;6252289;22;19998;-82
2021/12/27 03:05:17;;;;;;;11.82;7.82;;;282.00;2278.40;;;;;;6251855;22;20336;-81
2021/12/27 03:07:43;;;;;;;13.52;7.82;;;282.00;2278.40;;;;;;6251875;22;19996;-81
2021/12/27 03:10:11;;;;;;;11.43;7.22;;;282.00;2278.40;;;;;;6251754;22;20067;-81
2021/12/27 03:12:38;;;;;;;11.10;8.25;;;282.00;2278.40;;;;;;6252207;22;20026;-82
2021/12/27 03:15:08;;;;;;;13.93;9.32;;;282.00;2278.40;;;;;;6251890;22;19996;-81
2021/12/27 03:17:36;;;;;;;11.57;8.05;;;282.00;2278.40;;;;;;6251756;22;20003;-80
2021/12/27 03:20:03;;;;;;;11.02;8.73;;;282.00;2278.40;;;;;;6252079;22;20034;-81
2021/12/27 03:22:30;;;;;;;14.95;8.00;;;281.90;2278.40;;;;;;6251874;22;20007;-80
2021/12/27 03:24:56;;;;;;;14.63;9.35;;;281.90;2278.40;;;;;;6250992;22;20073;-80
2021/12/27 03:27:22;;;;;;;16.05;8.45;;;281.90;2278.40;;;;;;6251722;22;20003;-80
2021/12/27 03:29:48;;;;;;;13.70;8.73;;;281.90;2278.40;;;;;;6251885;22;20004;-81
2021/12/27 03:32:14;;;;;;;11.45;7.82;;;282.00;2278.40;;;;;;6251597;22;20006;-81
2021/12/27 03:34:52;;;;;;;11.32;7.43;;;282.00;2278.40;;;;;;6251751;22;20420;-82
2021/12/27 03:37:19;;;;;;;14.77;7.47;;;282.00;2278.40;;;;;;6278959;22;20030;-82
2021/12/27 03:39:45;;;;;;;13.05;8.25;;;282.00;2278.40;;;;;;6251378;22;20078;-82
2021/12/27 03:42:11;;;;;;;11.98;6.80;;;282.00;2278.40;;;;;;6251376;22;20034;-80
2021/12/27 03:44:37;;;;;;;10.10;5.75;;;282.20;2278.40;;;;;;6251703;22;19995;-83
2021/12/27 03:47:03;;;;;;;9.90;6.03;;;282.30;2278.40;;;;;;6278221;22;20485;-83
2021/12/27 03:49:29;;;;;;;9.65;6.45;;;282.40;2278.40;;;;;;6251807;22;20414;-83
2021/12/27 03:51:54;;;;;;;12.20;7.10;;;282.50;2278.40;;;;;;6251611;22;20006;-81
2021/12/27 03:54:20;;;;;;;13.52;7.90;;;282.50;2278.40;;;;;;6251356;22;19999;-82
2021/12/27 03:56:46;;;;;;;10.32;7.18;;;282.40;2278.40;;;;;;6251770;22;20010;-82
2021/12/27 03:59:37;;;;;;;10.90;6.88;;;282.40;2278.40;;;;;;6251434;22;20421;-81
2021/12/27 04:02:04;;;;;;;14.27;8.95;;;282.50;2278.40;;;;;;6251691;22;19999;-81
2021/12/27 04:04:30;;;;;;;14.02;7.40;;;282.40;2278.40;;;;;;6251774;22;20000;-81
2021/12/27 04:06:56;;;;;;;20.23;11.07;;;282.40;2278.40;;;;;;6251346;22;20000;-81
2021/12/27 04:09:22;;;;;;;15.10;10.20;;;282.50;2278.40;;;;;;6251625;22;20287;-81
2021/12/27 04:11:48;;;;;;;17.08;11.35;;;307.20;2304.00;;;;;;6251607;22;20397;-82
2021/12/27 04:14:14;;;;;;;12.85;7.53;;;282.50;2278.40;;;;;;6250887;22;20042;-81
2021/12/27 04:16:40;;;;;;;11.85;7.47;;;307.20;2304.00;;;;;;6278398;22;20000;-82
2021/12/27 04:19:06;;;;;;;12.15;7.05;;;307.20;2304.00;;;;;;6251590;22;20000;-81
2021/12/27 04:21:31;;;;;;;11.02;7.10;;;307.20;2304.00;;;;;;6251103;22;19995;-81
2021/12/27 04:23:57;;;;;;;21.40;12.90;;;307.20;2304.00;;;;;;6250904;22;20016;-81
2021/12/27 04:26:23;;;;;;;18.25;11.02;;;307.30;2304.00;;;;;;6251296;22;19999;-81
2021/12/27 04:28:50;;;;;;;12.95;9.13;;;307.30;2304.00;;;;;;6250986;22;19999;-82
2021/12/27 04:31:16;;;;;;;17.27;10.93;;;307.60;2304.00;;;;;;6278428;22;19996;-82
2021/12/27 04:33:42;;;;;;;21.10;12.70;;;307.30;2304.00;;;;;;6251180;22;19992;-82
2021/12/27 04:36:08;;;;;;;18.77;13.35;;;282.30;2278.40;;;;;;6250720;22;20007;-82
2021/12/27 04:38:35;;;;;;;22.45;18.33;;;307.30;2304.00;;;;;;6251249;22;20007;-82
2021/12/27 04:41:01;;;;;;;15.23;10.77;;;307.30;2304.00;;;;;;6278260;22;20041;-82
2021/12/27 04:43:27;;;;;;;10.25;6.88;;;307.20;2304.00;;;;;;6250995;22;19996;-81
2021/12/27 04:45:54;;;;;;;9.70;7.20;;;307.30;2304.00;;;;;;6251146;22;19991;-82
2021/12/27 04:48:21;;;;;;;10.20;6.65;;;307.20;2304.00;;;;;;6250702;22;20023;-81
2021/12/27 04:50:48;;;;;;;14.10;8.50;;;307.20;2304.00;;;;;;6251193;22;20007;-82
2021/12/27 04:53:14;;;;;;;10.27;6.43;;;307.20;2304.00;;;;;;6250584;22;20023;-80
2021/12/27 04:55:40;;;;;;;10.77;6.57;;;307.20;2304.00;;;;;;6251053;22;20023;-82
2021/12/27 04:58:10;;;;;;;8.48;5.20;;;307.30;2304.00;;;;;;6250962;22;20393;-81
2021/12/27 05:00:37;;;;;;;8.27;5.38;;;307.30;2304.00;;;;;;6278472;22;20079;-82
2021/12/27 05:03:04;;;;;;;8.68;5.90;;;307.40;2304.00;;;;;;6250580;22;19999;-82
2021/12/27 05:05:33;;;;;;;16.48;10.32;;;307.50;2304.00;;;;;;6251101;22;19998;-82
2021/12/27 05:08:00;;;;;;;26.92;17.63;;;307.50;2304.00;;;;;;6250910;22;20049;-82
2021/12/27 05:10:27;;;;;;;15.43;10.02;;;307.30;2304.00;;;;;;6250745;22;20428;-82
2021/12/27 05:12:53;;;;;;;15.30;8.40;;;307.40;2304.00;;;;;;6251031;22;20034;-82
2021/12/27 05:15:19;;;;;;;12.50;7.65;;;307.40;2304.00;;;;;;6250914;22;20087;-82
2021/12/27 05:17:45;;;;;;;18.38;8.77;;;307.50;2304.00;;;;;;6250953;22;20089;-82
2021/12/27 05:20:11;;;;;;;8.93;6.43;;;307.50;2304.00;;;;;;6250847;22;20004;-82
2021/12/27 05:22:38;;;;;;;13.63;7.05;;;307.50;2304.00;;;;;;6250569;22;19996;-81
2021/12/27 05:25:06;;;;;;;10.68;5.43;;;307.50;2304.00;;;;;;6250884;22;20022;-82
2021/12/27 05:27:32;;;;;;;13.13;6.70;;;307.60;2304.00;;;;;;6250804;22;19996;-82
2021/12/27 05:29:58;;;;;;;12.88;7.93;;;307.60;2304.00;;;;;;6250876;22;20082;-82
2021/12/27 05:32:23;;;;;;;10.13;6.68;;;307.50;2304.00;;;;;;6250665;22;19996;-82
2021/12/27 05:34:49;;;;;;;13.60;9.20;;;307.50;2304.00;;;;;;6250800;22;20045;-82
2021/12/27 05:37:15;;;;;;;12.15;7.38;;;307.50;2304.00;;;;;;6266606;22;19984;-82
2021/12/27 05:39:41;;;;;;;22.85;14.95;;;307.50;2304.00;;;;;;6278897;22;19991;-82
2021/12/27 05:42:08;;;;;;;13.77;9.02;;;307.30;2304.00;;;;;;6279243;22;19983;-81
2021/12/27 05:44:34;;;;;;;11.90;7.47;;;307.40;2304.00;;;;;;6256877;22;19999;-82
2021/12/27 05:47:00;;;;;;;13.40;10.50;;;307.40;2304.00;;;;;;6255300;22;20015;-81
2021/12/27 05:49:25;;;;;;;19.70;15.93;;;307.30;2304.00;;;;;;6255093;22;20421;-82
2021/12/27 05:51:52;;;;;;;17.42;10.65;;;307.30;2304.00;;;;;;6253178;22;20082;-81
2021/12/27 05:54:20;;;;;;;20.13;11.43;;;307.30;2304.00;;;;;;6281278;22;19996;-82
2021/12/27 05:56:48;;;;;;;12.50;7.18;;;307.30;2304.00;;;;;;6251066;22;19999;-82
2021/12/27 05:59:16;;;;;;;6.68;4.63;;;307.30;2304.00;;;;;;6250669;22;20290;-82
2021/12/27 06:01:43;;;;;;;8.95;6.07;;;307.40;2304.00;;;;;;6250525;22;20023;-82
2021/12/27 06:04:09;;;;;;;10.07;5.85;;;307.40;2304.00;;;;;;6250529;22;19996;-82
2021/12/27 06:06:35;;;;;;;13.75;7.00;;;307.40;2304.00;;;;;;6250247;22;20315;-81
2021/12/27 06:09:02;;;;;;;9.70;6.28;;;307.30;2304.00;;;;;;6277485;22;20033;-82
2021/12/27 06:11:27;;;;;;;12.95;9.30;;;307.40;2304.00;;;;;;6277414;22;19999;-82
2021/12/27 06:13:53;;;;;;;11.95;7.72;;;307.50;2304.00;;;;;;6250169;22;20340;-83
2021/12/27 06:16:20;;;;;;;19.80;14.85;;;307.50;2304.00;;;;;;6250236;22;19996;-83
2021/12/27 06:18:46;;;;;;;36.00;25.20;;;307.50;2304.00;;;;;;6250377;22;20436;-82
2021/12/27 06:21:12;;;;;;;15.60;10.32;;;307.50;2304.00;;;;;;6250362;22;20096;-81
2021/12/27 06:23:38;;;;;;;16.45;11.23;;;307.50;2304.00;;;;;;6249901;22;20397;-82
2021/12/27 06:26:04;;;;;;;31.23;25.65;;;307.50;2304.00;;;;;;6250004;22;20000;-81
2021/12/27 06:28:31;;;;;;;13.93;9.75;;;307.50;2304.00;;;;;;6250405;22;19996;-82
2021/12/27 06:30:59;;;;;;;16.05;11.88;;;307.50;2304.00;;;;;;6250283;22;20061;-82
2021/12/27 06:33:25;;;;;;;19.98;17.50;;;307.60;2304.00;;;;;;6250214;22;20049;-83
2021/12/27 06:35:51;;;;;;;12.77;10.20;;;307.60;2304.00;;;;;;6250484;22;19995;-81
2021/12/27 06:38:17;;;;;;;11.93;9.15;;;307.60;2304.00;;;;;;6250288;22;20007;-82
2021/12/27 06:40:42;;;;;;;14.95;11.40;;;307.60;2304.00;;;;;;6250250;22;19996;-82
2021/12/27 06:43:08;;;;;;;23.13;18.50;;;307.60;2304.00;;;;;;6250599;22;20003;-81
2021/12/27 06:45:34;;;;;;;21.27;17.33;;;307.60;2304.00;;;;;;6277350;22;19996;-82
2021/12/27 06:48:00;;;;;;;12.10;7.68;;;307.60;2304.00;;;;;;6250278;22;20306;-80
2021/12/27 06:50:26;;;;;;;11.60;7.63;;;307.60;2304.00;;;;;;6250204;22;20000;-82
2021/12/27 06:52:51;;;;;;;11.95;8.15;;;307.60;2304.00;;;;;;6250273;22;20023;-81
2021/12/27 06:55:18;;;;;;;10.05;5.72;;;307.50;2304.00;;;;;;6250157;22;20405;-81
2021/12/27 06:57:44;;;;;;;10.40;5.93;;;307.60;2304.00;;;;;;6277043;22;19996;-82
2021/12/27 07:00:12;;;;;;;8.93;5.72;;;307.50;2304.00;;;;;;6250234;22;20031;-82
2021/12/27 07:02:38;;;;;;;11.05;7.03;;;307.50;2304.00;;;;;;6249971;22;20050;-81
2021/12/27 07:05:05;;;;;;;11.00;7.05;;;307.50;2304.00;;;;;;6250376;22;20398;-81
2021/12/27 07:07:31;;;;;;;10.48;7.10;;;307.50;2304.00;;;;;;6250155;22;20002;-81
2021/12/27 07:09:57;;;;;;;12.55;8.15;;;307.50;2304.00;;;;;;6249761;22;20321;-82
2021/12/27 07:12:23;;;;;;;15.95;7.80;;;307.40;2304.00;;;;;;6250340;22;20314;-83
2021/12/27 07:14:49;;;;;;;13.65;9.85;;;307.40;2304.00;;;;;;6250131;22;20000;-81
2021/12/27 07:17:16;;;;;;;17.92;13.60;;;307.40;2304.00;;;;;;6251248;22;20037;-83
2021/12/27 07:19:42;;;;;;;19.75;13.30;;;307.40;2304.00;;;;;;6252029;22;19995;-82
2021/12/27 07:22:08;;;;;;;22.15;14.88;;;307.40;2304.00;;;;;;6279026;22;20302;-82
2021/12/27 07:24:34;;;;;;;20.23;13.20;;;307.40;2304.00;;;;;;6251491;22;20038;-82
2021/12/27 07:27:00;;;;;;;22.05;12.48;;;307.50;2304.00;;;;;;6252246;22;19999;-82
2021/12/27 07:29:26;;;;;;;22.98;13.10;;;307.50;2304.00;;;;;;6251441;22;20356;-83
2021/12/27 07:31:52;;;;;;;20.58;12.98;;;307.40;2304.00;;;;;;6252032;22;20015;-81
2021/12/27 07:34:24;;;;;;;20.80;11.55;;;307.50;2304.00;;;;;;6251838;22;20000;-81
2021/12/27 07:36:54;;;;;;;35.35;25.50;;;307.60;2304.00;;;;;;6278713;22;19987;-82
2021/12/27 07:39:21;;;;;;;34.60;23.60;;;307.50;2304.00;;;;;;6278729;22;20000;-81
2021/12/27 07:41:47;;;;;;;20.77;15.18;;;307.50;2304.00;;;;;;6251922;22;20000;-82
2021/12/27 07:44:13;;;;;;;15.88;11.43;;;307.50;2304.00;;;;;;6251678;22;20121;-83
2021/12/27 07:46:42;;;;;;;16.27;10.95;;;307.30;2304.00;;;;;;6251958;22;20301;-85
2021/12/27 07:49:12;;;;;;;16.15;11.13;;;307.50;2304.00;;;;;;6251934;22;19999;-83
2021/12/27 07:51:38;;;;;;;25.33;19.10;;;307.60;2304.00;;;;;;6251585;22;20007;-83
2021/12/27 07:54:04;;;;;;;27.85;17.73;;;307.60;2304.00;;;;;;6251598;22;19999;-81
2021/12/27 07:56:30;;;;;;;20.88;14.15;;;307.60;2304.00;;;;;;6251649;22;19996;-81
2021/12/27 07:58:56;;;;;;;49.85;33.83;;;307.60;2304.00;;;;;;6251296;22;20352;-79
2021/12/27 08:01:22;;;;;;;79.75;48.10;;;307.60;2304.00;;;;;;6251551;22;20432;-81
2021/12/27 08:03:48;;;;;;;70.93;51.42;;;307.70;2304.00;;;;;;6251470;22;20000;-80
2021/12/27 08:06:14;;;;;;;44.13;33.08;;;307.60;2304.00;;;;;;6251601;22;20006;-83
2021/12/27 08:08:40;;;;;;;43.03;30.60;;;307.70;2304.00;;;;;;6251580;22;20038;-82
2021/12/27 08:11:11;;;;;;;17.10;12.27;;;307.70;2304.00;;;;;;6251492;22;20091;-80
2021/12/27 08:13:56;;;;;;;22.95;16.70;;;307.80;2304.00;;;;;;6250805;22;20042;-79
2021/12/27 08:16:25;;;;;;;15.90;11.82;;;307.90;2304.00;;;;;;6251234;22;19999;-81
2021/12/27 08:22:22;;;;;;;26.60;20.98;;;307.90;2304.00;;;;;;6277665;22;20045;-81
2021/12/27 08:24:49;;;;;;;51.45;31.88;;;307.80;2304.00;;;;;;6250842;22;20367;-81
2021/12/27 08:27:15;;;;;;;59.58;41.08;;;307.80;2304.00;;;;;;6251121;22;20420;-80
2021/12/27 08:29:41;;;;;;;59.80;41.05;;;307.80;2304.00;;;;;;6250889;22;20004;-81
2021/12/27 08:32:07;;;;;;;74.55;50.90;;;307.90;2304.00;;;;;;6250528;22;20004;-80
2021/12/27 08:34:33;;;;;;;59.35;36.60;;;307.80;2304.00;;;;;;6251235;22;20034;-81
2021/12/27 08:37:00;;;;;;;36.47;26.23;;;307.80;2304.00;;;;;;6251205;22;19996;-80
2021/12/27 08:39:28;;;;;;;32.78;20.17;;;307.90;2304.00;;;;;;6250824;22;20004;-80
2021/12/27 08:41:54;;;;;;;20.27;14.82;;;307.90;2304.00;;;;;;6250906;22;19999;-79
2021/12/27 08:44:20;;;;;;;22.60;11.98;;;307.90;2304.00;;;;;;6250746;22;19995;-79
2021/12/27 08:46:46;;;;;;;15.38;8.07;;;308.00;2304.00;;;;;;6250421;22;19999;-80
2021/12/27 08:49:12;;;;;;;13.65;8.95;;;308.00;2304.00;;;;;;6250762;22;20000;-78
2021/12/27 08:51:40;;;;;;;16.67;9.73;;;308.00;2304.00;;;;;;6250657;22;20463;-80
2021/12/27 08:54:06;;;;;;;14.70;9.57;;;307.90;2304.00;;;;;;6277856;22;19995;-80
2021/12/27 08:56:32;;;;;;;19.00;11.60;;;307.90;2304.00;;;;;;6251233;22;20086;-81
2021/12/27 08:58:58;;;;;;;16.77;10.77;;;307.80;2304.00;;;;;;6277784;22;20421;-80
2021/12/27 09:01:27;;;;;;;9.50;7.53;;;307.70;2304.00;;;;;;6250442;22;20003;-81
2021/12/27 09:03:53;;;;;;;21.60;12.18;;;307.70;2304.00;;;;;;6250734;22;20124;-82
2021/12/27 09:06:20;;;;;;;11.10;7.32;;;307.70;2304.00;;;;;;6250351;22;20038;-77
2021/12/27 09:08:45;;;;;;;13.85;10.23;;;307.70;2304.00;;;;;;6250037;22;20004;-79
2021/12/27 09:11:11;;;;;;;16.63;10.23;;;307.70;2304.00;;;;;;6250952;22;20083;-78
2021/12/27 09:13:37;;;;;;;16.05;11.05;;;307.70;2304.00;;;;;;6250641;22;19996;-79
2021/12/27 09:16:04;;;;;;;23.50;13.98;;;307.80;2304.00;;;;;;6250531;22;20031;-81
2021/12/27 09:18:32;;;;;;;22.13;15.15;;;307.80;2304.00;;;;;;6250745;22;20006;-80
2021/12/27 09:21:01;;;;;;;20.75;14.30;;;307.80;2304.00;;;;;;6250237;22;20023;-80
2021/12/27 09:23:43;;;;;;;26.33;16.48;;;307.80;2304.00;;;;;;6249497;22;20130;-77
2021/12/27 09:26:09;;;;;;;24.35;21.13;;;307.80;2304.00;;;;;;6250652;22;20405;-79
2021/12/27 09:28:37;;;;;;;34.17;24.55;;;307.90;2304.00;;;;;;6276773;22;20007;-80
2021/12/27 09:34:55;;;;;;;24.70;17.38;;;308.10;2304.00;;;;;;6277030;22;20030;-79
2021/12/27 09:40:43;;;;;;;40.70;24.67;;;308.10;2304.00;;;;;;6274432;22;20081;-81
2021/12/27 09:43:09;;;;;;;25.60;16.65;;;332.80;2329.60;;;;;;6248733;22;20004;-81
2021/12/27 09:45:36;;;;;;;27.23;14.40;;;332.80;2329.60;;;;;;6249141;22;20090;-80
2021/12/27 09:48:02;;;;;;;29.38;18.15;;;332.90;2329.60;;;;;;6248423;22;20026;-78
2021/12/27 09:50:33;;;;;;;22.77;15.43;;;333.00;2329.60;;;;;;6248880;22;20083;-80
2021/12/27 09:53:05;;;;;;;19.60;13.05;;;333.00;2329.60;;;;;;6249240;22;19999;-80
2021/12/27 10:02:15;;;;;;;19.88;13.20;;;333.10;2329.60;;;;;;6275404;22;20102;-78
2021/12/27 10:04:43;;;;;;;27.25;18.23;;;333.10;2329.60;;;;;;6248653;22;20024;-80
2021/12/27 10:07:09;;;;;;;35.20;21.38;;;333.10;2329.60;;;;;;6247263;22;20000;-79
2021/12/27 10:09:38;;;;;;;19.10;12.20;;;333.20;2329.60;;;;;;6247823;22;20000;-78
2021/12/27 10:12:06;;;;;;;16.35;8.75;;;333.20;2329.60;;;;;;6248337;22;19999;-78
2021/12/27 10:14:34;;;;;;;16.20;9.98;;;333.20;2329.60;;;;;;6248834;22;19999;-80
2021/12/27 10:17:11;;;;;;;16.08;9.30;;;333.30;2329.60;;;;;;6248548;22;20089;-80
2021/12/27 10:19:38;;;;;;;12.05;8.38;;;333.20;2329.60;;;;;;6249127;22;20094;-80
2021/12/27 10:22:16;;;;;;;10.45;8.27;;;333.30;2329.60;;;;;;6249194;22;20405;-78
2021/12/27 10:24:45;;;;;;;16.92;12.25;;;333.40;2329.60;;;;;;6247865;22;20012;-79
2021/12/27 10:27:14;;;;;;;17.05;10.77;;;333.30;2329.60;;;;;;6248506;22;20004;-78
2021/12/27 10:29:40;;;;;;;12.70;8.80;;;333.40;2329.60;;;;;;6248454;22;20082;-78
2021/12/27 10:32:16;;;;;;;15.93;10.43;;;333.30;2329.60;;;;;;6247705;22;19999;-78
2021/12/27 10:34:55;;;;;;;18.40;14.48;;;333.30;2329.60;;;;;;6276046;22;20050;-78
2021/12/27 10:37:32;;;;;;;28.95;19.15;;;333.40;2329.60;;;;;;6248815;22;20003;-79
2021/12/27 10:40:06;;;;;;;26.98;16.00;;;333.40;2329.60;;;;;;6248323;22;20366;-78
2021/12/27 10:42:46;;;;;;;14.05;10.88;;;333.40;2329.60;;;;;;6248587;22;20006;-79
2021/12/27 10:45:16;;;;;;;22.30;11.15;;;333.40;2329.60;;;;;;6275851;22;20305;-79
2021/12/27 10:47:53;;;;;;;18.13;12.35;;;333.40;2329.60;;;;;;6248546;22;20041;-80
2021/12/27 10:50:26;;;;;;;29.63;20.70;;;333.40;2329.60;;;;;;6248854;22;20004;-81
2021/12/27 10:53:05;;;;;;;29.95;18.65;;;333.50;2329.60;;;;;;6250475;22;20031;-81
2021/12/27 10:55:34;;;;;;;30.38;15.43;;;333.50;2329.60;;;;;;6250463;22;19996;-80
2021/12/27 10:58:26;;;;;;;19.95;11.98;;;333.50;2329.60;;;;;;6250864;22;20002;-80
2021/12/27 11:01:30;;;;;;;17.48;10.52;;;333.40;2329.60;;;;;;6251671;22;20026;-79
2021/12/27 11:04:00;;;;;;;50.35;27.58;;;333.50;2329.60;;;;;;6130280;23;20029;-81
2021/12/27 11:06:30;;;;;;;28.38;17.83;;;333.40;2329.60;;;;;;6130264;23;20006;-80
2021/12/27 11:09:00;;;;;;;24.40;15.35;;;333.40;2329.60;;;;;;6130340;23;20006;-81
2021/12/27 11:11:27;;;;;;;24.70;15.32;;;333.40;2329.60;;;;;;6130458;23;20002;-81
2021/12/27 11:14:25;;;;;;;20.15;14.63;;;333.40;2329.60;;;;;;6154810;23;20073;-81
2021/12/27 11:17:14;;;;;;;20.65;12.77;;;333.40;2329.60;;;;;;6130404;23;20547;-82
2021/12/27 11:23:16;;;;;;;16.70;11.75;;;333.20;2329.60;;;;;;6040406;23;20003;-80
2021/12/27 11:25:47;;;;;;;19.42;11.95;;;333.10;2329.60;;;;;;6126153;23;20335;-79
2021/12/27 11:28:31;;;;;;;20.65;12.38;;;333.10;2329.60;;;;;;6200298;22;20014;-80
2021/12/27 11:31:00;;;;;;;17.75;13.93;;;333.00;2329.60;;;;;;6246367;23;20015;-79
2021/12/27 11:33:26;;;;;;;26.83;19.42;;;333.00;2329.60;;;;;;6246550;23;20413;-80
2021/12/27 11:35:55;;;;;;;31.63;25.20;;;332.90;2329.60;;;;;;6248058;22;20068;-80
2021/12/27 11:38:53;;;;;;;42.60;36.28;;;332.90;2329.60;;;;;;6246533;23;19992;-80
2021/12/27 11:41:24;;;;;;;30.30;23.92;;;332.90;2329.60;;;;;;6180257;23;20033;-80
2021/12/27 11:43:57;;;;;;;38.60;25.13;;;332.80;2329.60;;;;;;6243057;23;20358;-81
2021/12/27 11:46:25;;;;;;;40.30;26.92;;;332.80;2329.60;;;;;;6245868;23;20008;-80
2021/12/27 11:48:56;;;;;;;49.72;34.88;;;332.80;2329.60;;;;;;6244962;23;20004;-78
2021/12/27 11:51:31;;;;;;;41.50;29.35;;;308.10;2304.00;;;;;;6244518;23;20422;-77
2021/12/27 11:53:59;;;;;;;27.65;20.15;;;308.10;2304.00;;;;;;6246960;22;20000;-79
2021/12/27 11:56:54;;;;;;;29.35;18.83;;;308.10;2304.00;;;;;;6244876;23;20054;-81
2021/12/27 11:59:31;;;;;;;24.45;18.92;;;308.10;2304.00;;;;;;6220016;23;20000;-81
2021/12/27 12:02:00;;;;;;;31.45;22.30;;;308.10;2304.00;;;;;;6244950;23;20393;-81
2021/12/27 12:04:55;;;;;;;34.42;26.23;;;332.80;2329.60;;;;;;6244342;23;20007;-79
2021/12/27 12:07:33;;;;;;;33.08;22.75;;;332.90;2329.60;;;;;;6241981;23;20000;-82
2021/12/27 12:10:00;;;;;;;33.22;24.50;;;333.00;2329.60;;;;;;6244879;23;20058;-80
2021/12/27 12:12:29;;;;;;;23.05;19.58;;;333.00;2329.60;;;;;;6246343;22;19996;-78
2021/12/27 12:15:02;;;;;;;11.93;8.48;;;333.00;2329.60;;;;;;6245303;23;20000;-81
2021/12/27 12:17:40;;;;;;;;;;;333.00;2329.60;;;;;;6247773;22;19996;-81
2021/12/27 12:20:23;;;;;;;16.48;12.45;;;333.10;2329.60;;;;;;6247181;22;19982;-82
2021/12/27 12:23:04;;;;;;;15.68;10.02;;;333.10;2329.60;;;;;;6245845;23;19996;-81
2021/12/27 12:25:30;;;;;;;18.50;12.18;;;333.10;2329.60;;;;;;6245933;23;20008;-80
2021/12/27 12:28:09;;;;;;;35.15;30.25;;;333.20;2329.60;;;;;;6246141;23;19996;-82
2021/12/27 12:30:47;;;;;;;34.28;25.48;;;333.20;2329.60;;;;;;6245856;23;20054;-80